Terminal Aerodrome Forecast
Issued by NWS Rapid City, SD

Home | Current Version | Previous Version | Graphics & Text | Print | Product List | Glossary On
Versions: 1 2 3 4 5 6 7 8 9 10 11 12 13 14 15 16 17 18 19
000
FTUS43 KUNR 141209 AAA
TAFRAP
TAF AMD
KRAP 141209Z 1412/1512 35020G30KT P6SM -SHRA SCT040 BKN080
     FM141400 34028G40KT P6SM -SHRA SCT025 OVC060
     FM141900 34028G40KT P6SM SCT030 BKN100
     FM150100 30010KT P6SM SKC=

USA.gov is the U.S. government's official web portal to all federal, state and local government web resources and services.